Time;durP1;ratioP1;P1;durP2;ratioP2;P2;SDS_P1;SDS_P2;PMS_P1;PMS_P2;Temp;Humidity;BMP_temperature;BMP_pressure;BME280_temperature;BME280_humidity;BME280_pressure;Samples;Min_cycle;Max_cycle;Signal;HPM_P1;HPM_P2
2022/05/30 00:00:26;;;;;;;;;1.00;1.00;;;;;13.77;51.29;100682.28;4978531;28;45426;-52
2022/05/30 00:02:51;;;;;;;;;1.00;1.00;;;;;13.74;51.54;100693.75;4962330;28;45601;-55
2022/05/30 00:05:18;;;;;;;;;1.50;1.50;;;;;13.75;51.20;100689.91;4961857;28;46531;-53
2022/05/30 00:07:44;;;;;;;;;1.40;1.40;;;;;13.71;51.22;100684.03;4961786;28;45488;-53
2022/05/30 00:10:10;;;;;;;;;1.00;1.00;;;;;13.76;51.15;100686.94;4961611;28;45357;-56
2022/05/30 00:12:38;;;;;;;;;2.40;1.60;;;;;13.69;51.26;100678.78;4945980;28;45606;-55
2022/05/30 00:15:05;;;;;;;;;2.00;2.00;;;;;13.75;51.13;100679.75;4945876;28;46648;-58
2022/05/30 00:17:31;;;;;;;;;2.20;2.20;;;;;13.65;51.50;100685.81;4961653;28;45527;-54
2022/05/30 00:19:57;;;;;;;;;1.75;1.75;;;;;13.72;51.46;100674.69;4977773;28;45911;-56
2022/05/30 00:22:22;;;;;;;;;2.00;2.00;;;;;13.48;51.73;100640.66;4961965;28;45687;-55
2022/05/30 00:24:49;;;;;;;;;1.00;1.00;;;;;13.67;51.64;100669.88;4996073;28;45500;-57
2022/05/30 00:27:14;;;;;;;;;2.20;1.40;;;;;13.50;52.47;100661.41;4997360;28;45753;-57
2022/05/30 00:29:40;;;;;;;;;1.75;1.75;;;;;13.40;52.53;100652.84;5014071;28;45244;-56
2022/05/30 00:32:06;;;;;;;;;2.00;2.00;;;;;13.45;52.50;100664.00;4998633;28;45211;-52
2022/05/30 00:34:32;;;;;;;;;1.00;1.00;;;;;13.50;52.61;100663.34;4998178;28;45475;-55
2022/05/30 00:36:57;;;;;;;;;2.80;2.80;;;;;13.57;51.97;100655.81;4998191;28;45337;-56
2022/05/30 00:39:23;;;;;;;;;1.00;1.00;;;;;13.59;52.34;100653.66;4998478;28;45488;-55
2022/05/30 00:41:48;;;;;;;;;4.00;3.00;;;;;13.48;52.92;100654.44;4998669;28;45525;-52
2022/05/30 00:44:14;;;;;;;;;3.00;3.00;;;;;13.17;52.95;100603.97;4997703;28;45816;-51
2022/05/30 00:46:40;;;;;;;;;2.00;1.00;;;;;13.45;53.07;100643.88;4997726;28;45480;-53
2022/05/30 00:49:07;;;;;;;;;3.25;3.25;;;;;13.55;52.51;100655.19;4998391;28;45408;-54
2022/05/30 00:51:35;;;;;;;;;5.00;3.60;;;;;13.53;52.94;100649.94;4998342;28;45567;-55
2022/05/30 00:54:01;;;;;;;;;4.40;3.00;;;;;13.41;53.19;100651.78;4998239;28;46393;-55
2022/05/30 00:56:32;;;;;;;;;3.00;3.00;;;;;13.21;53.71;100641.84;4998091;28;45783;-56
2022/05/30 00:58:58;;;;;;;;;3.60;3.60;;;;;13.18;54.42;100639.53;4997215;28;45436;-53
2022/05/30 01:01:23;;;;;;;;;4.75;4.75;;;;;13.14;54.36;100647.44;5030479;28;45394;-58
2022/05/30 01:06:39;;;;;;;;;2.60;2.00;;;;;13.17;54.75;100632.34;5023932;28;45413;-57
2022/05/30 01:09:09;;;;;;;;;3.80;2.20;;;;;13.20;54.43;100631.06;4997991;28;45233;-55
2022/05/30 01:12:04;;;;;;;;;2.80;2.80;;;;;13.24;54.32;100635.88;5013524;28;45698;-50
2022/05/30 01:14:31;;;;;;;;;2.40;2.40;;;;;13.17;54.21;100631.53;4997965;28;45809;-51
2022/05/30 01:16:57;;;;;;;;;2.60;2.60;;;;;13.13;54.54;100629.22;4998022;28;45353;-52
2022/05/30 01:19:43;;;;;;;;;4.00;3.00;;;;;13.10;54.99;100635.22;4998048;28;45369;-55
2022/05/30 01:22:26;;;;;;;;;5.60;3.60;;;;;13.13;54.90;100629.22;5030076;28;45473;-55
2022/05/30 01:25:01;;;;;;;;;4.00;4.00;;;;;13.18;55.01;100630.44;4984172;28;46480;-55
2022/05/30 01:27:32;;;;;;;;;3.40;2.00;;;;;13.22;55.00;100623.38;4978192;28;45384;-49
2022/05/30 01:30:01;;;;;;;;;1.00;1.00;;;;;13.11;54.82;100609.34;4976942;28;45414;-53
2022/05/30 01:32:27;;;;;;;;;4.20;4.00;;;;;13.14;54.89;100619.88;4961004;28;45392;-54
2022/05/30 01:34:52;;;;;;;;;2.25;2.25;;;;;13.09;55.14;100627.16;4978060;28;46524;-57
2022/05/30 01:37:18;;;;;;;;;4.75;2.25;;;;;12.98;54.47;100587.47;4977912;28;45311;-53
2022/05/30 01:39:43;;;;;;;;;5.00;4.00;;;;;13.19;55.16;100621.09;4977844;28;45542;-54
2022/05/30 01:42:09;;;;;;;;;4.50;4.50;;;;;13.22;54.79;100615.97;4978212;28;45401;-53
2022/05/30 01:44:34;;;;;;;;;4.75;3.75;;;;;13.02;54.72;100580.41;4977592;28;46517;-54
2022/05/30 01:47:00;;;;;;;;;4.25;3.50;;;;;13.26;54.31;100621.84;4976618;28;45428;-57
2022/05/30 01:49:26;;;;;;;;;4.75;3.50;;;;;13.35;54.16;100620.44;4977582;28;45457;-50
2022/05/30 01:51:54;;;;;;;;;5.00;3.00;;;;;13.28;54.31;100608.69;4977960;28;45354;-53
2022/05/30 01:54:19;;;;;;;;;3.00;3.00;;;;;13.33;54.11;100611.56;4977817;28;46324;-49
2022/05/30 01:56:45;;;;;;;;;2.50;2.25;;;;;13.29;54.16;100616.72;4951510;28;45375;-52
2022/05/30 01:59:10;;;;;;;;;2.00;2.00;;;;;13.26;54.15;100624.63;4972843;28;45354;-51
2022/05/30 02:01:36;;;;;;;;;3.50;3.50;;;;;13.19;54.37;100615.59;4977793;28;45544;-55
2022/05/30 02:04:01;;;;;;;;;3.50;2.50;;;;;13.10;54.50;100618.69;4943535;28;47234;-51
2022/05/30 02:06:27;;;;;;;;;3.75;3.75;;;;;13.10;54.67;100623.34;4977298;28;45262;-50
2022/05/30 02:08:53;;;;;;;;;3.50;2.25;;;;;13.11;54.22;100620.34;4976271;28;45233;-51
2022/05/30 02:11:18;;;;;;;;;3.50;3.50;;;;;13.22;54.15;100627.00;4976296;28;45617;-51
2022/05/30 02:13:44;;;;;;;;;2.00;2.00;;;;;12.92;54.31;100582.88;4975646;28;45413;-54
2022/05/30 02:18:57;;;;;;;;;3.00;2.40;;;;;12.97;54.07;100588.53;4962528;28;45396;-53
2022/05/30 02:21:23;;;;;;;;;4.40;4.00;;;;;13.11;54.24;100602.97;4977046;28;45652;-56
2022/05/30 02:23:48;;;;;;;;;2.25;2.25;;;;;13.06;54.67;100622.09;4977467;28;45867;-56
2022/05/30 02:26:14;;;;;;;;;2.75;2.75;;;;;13.06;54.89;100619.34;4996768;28;45638;-51
2022/05/30 02:28:39;;;;;;;;;3.00;3.00;;;;;12.82;54.75;100583.44;4996978;28;45368;-53
2022/05/30 02:31:05;;;;;;;;;4.00;3.75;;;;;13.14;54.77;100625.38;4995393;28;45571;-55
2022/05/30 02:36:40;;;;;;;;;4.00;4.00;;;;;12.55;55.33;100557.03;5006541;28;45452;-51
2022/05/30 02:39:13;;;;;;;;;5.20;4.00;;;;;12.93;55.35;100606.59;4996124;28;45378;-53
2022/05/30 02:41:40;;;;;;;;;4.60;3.00;;;;;12.82;55.15;100600.78;4995402;28;45363;-52
2022/05/30 02:44:06;;;;;;;;;3.80;3.80;;;;;12.92;56.09;100624.19;4995850;28;47067;-54
2022/05/30 02:46:31;;;;;;;;;6.00;4.25;;;;;12.75;55.92;100619.28;5027995;28;45744;-55
2022/05/30 02:48:56;;;;;;;;;7.00;5.25;;;;;12.87;56.32;100622.16;5027996;28;45396;-51
2022/05/30 02:51:22;;;;;;;;;9.75;4.00;;;;;12.84;56.07;100620.69;5027938;28;45369;-54
2022/05/30 02:53:47;;;;;;;;;4.00;3.75;;;;;12.87;56.31;100625.72;4994840;28;46438;-54
2022/05/30 02:56:13;;;;;;;;;6.25;4.75;;;;;12.78;56.49;100627.13;4996018;28;45822;-54
2022/05/30 02:58:39;;;;;;;;;8.80;5.80;;;;;12.71;56.85;100618.91;4996346;28;45287;-55
2022/05/30 03:01:04;;;;;;;;;4.00;3.25;;;;;12.81;56.16;100607.38;4995805;28;45580;-55
2022/05/30 03:03:30;;;;;;;;;5.75;5.75;;;;;12.85;55.92;100621.50;4994886;28;46345;-51
2022/05/30 03:05:56;;;;;;;;;3.60;3.60;;;;;12.86;55.93;100618.53;4995993;28;45366;-52
2022/05/30 03:08:21;;;;;;;;;5.00;5.00;;;;;12.64;56.88;100620.09;4995903;28;45396;-53
2022/05/30 03:10:47;;;;;;;;;3.25;3.25;;;;;12.61;56.91;100622.19;4995651;28;45334;-55
2022/05/30 03:13:12;;;;;;;;;4.00;4.00;;;;;12.64;56.72;100625.59;4995830;28;45561;-51
2022/05/30 03:15:38;;;;;;;;;6.00;6.00;;;;;12.74;56.39;100621.22;4996101;28;45434;-51
2022/05/30 03:18:04;;;;;;;;;5.75;5.75;;;;;12.82;55.95;100622.00;4994747;28;45417;-50
2022/05/30 03:20:30;;;;;;;;;7.40;3.60;;;;;12.74;56.61;100623.13;4996078;28;45627;-58
2022/05/30 03:22:56;;;;;;;;;4.50;4.00;;;;;12.70;56.66;100624.69;4995892;28;45824;-53
2022/05/30 03:25:21;;;;;;;;;5.20;3.60;;;;;12.63;57.03;100624.72;4981222;28;45452;-51
2022/05/30 03:27:47;;;;;;;;;3.75;3.25;;;;;12.52;57.10;100622.72;4976321;28;45406;-54
2022/05/30 03:30:12;;;;;;;;;4.50;4.50;;;;;12.37;57.61;100623.94;4975196;28;45381;-54
2022/05/30 03:32:38;;;;;;;;;4.75;4.75;;;;;12.37;57.75;100625.88;4975968;28;45430;-54
2022/05/30 03:35:04;;;;;;;;;5.00;5.00;;;;;12.36;57.38;100596.63;4975879;28;45294;-55
2022/05/30 03:37:30;;;;;;;;;4.00;4.00;;;;;12.29;56.79;100574.72;4975549;28;45512;-54
2022/05/30 03:39:55;;;;;;;;;2.00;2.00;;;;;12.44;56.43;100602.69;4975209;28;45487;-55
2022/05/30 03:42:20;;;;;;;;;3.25;3.25;;;;;12.32;56.56;100588.84;4975811;28;45890;-52
2022/05/30 03:44:46;;;;;;;;;4.75;4.75;;;;;12.60;56.02;100614.19;4975909;28;45239;-55
2022/05/30 03:47:11;;;;;;;;;4.75;4.00;;;;;12.69;55.89;100626.56;4976325;28;45271;-55
2022/05/30 03:49:37;;;;;;;;;3.25;3.00;;;;;12.44;56.41;100621.13;4976295;28;45225;-52
2022/05/30 03:52:04;;;;;;;;;3.75;2.75;;;;;12.22;56.42;100585.75;4975622;28;46923;-51
2022/05/30 03:54:29;;;;;;;;;4.40;3.80;;;;;12.48;56.08;100625.09;4974895;28;45411;-52
2022/05/30 03:56:55;;;;;;;;;6.00;4.00;;;;;12.45;56.14;100629.16;4958670;28;45749;-56
2022/05/30 03:59:20;;;;;;;;;7.50;4.00;;;;;12.29;55.95;100594.81;4976223;28;45381;-56
2022/05/30 04:01:46;;;;;;;;;4.00;4.00;;;;;12.29;56.27;100597.56;4975435;28;45804;-52
2022/05/30 04:04:14;;;;;;;;;4.00;3.00;;;;;12.47;56.25;100637.19;4975100;28;45426;-53
2022/05/30 04:06:40;;;;;;;;;4.20;3.00;;;;;12.27;55.89;100596.94;4975901;28;45426;-54
2022/05/30 04:09:06;;;;;;;;;4.50;3.50;;;;;12.58;56.01;100633.69;4974908;28;45400;-50
2022/05/30 04:11:32;;;;;;;;;4.60;3.00;;;;;12.39;56.20;100615.47;4975734;28;45736;-52
2022/05/30 04:13:57;;;;;;;;;3.75;3.75;;;;;12.25;55.96;100598.22;4975874;28;45350;-56
2022/05/30 04:16:23;;;;;;;;;4.00;4.00;;;;;12.58;55.68;100641.94;4974765;28;45878;-56
2022/05/30 04:18:48;;;;;;;;;6.50;5.75;;;;;12.57;56.13;100650.44;4976344;28;45365;-54
2022/05/30 04:21:14;;;;;;;;;10.00;5.00;;;;;12.54;55.96;100650.91;4974604;28;46524;-54
2022/05/30 04:23:41;;;;;;;;;5.75;4.75;;;;;12.44;55.96;100643.97;4961315;28;45781;-55
2022/05/30 04:26:08;;;;;;;;;4.80;4.80;;;;;12.32;56.28;100652.16;4998770;28;45332;-54
2022/05/30 04:28:34;;;;;;;;;9.80;7.20;;;;;12.35;56.85;100653.59;4999000;28;45364;-50
2022/05/30 04:30:59;;;;;;;;;7.00;6.00;;;;;12.42;56.55;100646.13;4998700;28;46004;-56
2022/05/30 04:33:27;;;;;;;;;6.00;6.00;;;;;12.34;56.14;100625.22;4997302;28;45352;-57
2022/05/30 04:35:52;;;;;;;;;4.00;4.00;;;;;12.64;55.72;100669.66;5013645;28;45371;-52
2022/05/30 04:38:18;;;;;;;;;7.75;4.00;;;;;12.60;56.17;100672.00;4997402;28;45464;-57
2022/05/30 04:40:44;;;;;;;;;5.25;4.00;;;;;12.57;55.80;100655.94;4997954;28;45529;-56
2022/05/30 04:43:10;;;;;;;;;5.00;5.00;;;;;12.62;55.91;100653.34;4998310;28;45440;-50
2022/05/30 04:45:35;;;;;;;;;5.40;5.40;;;;;12.68;55.80;100660.69;4998342;28;45365;-52
2022/05/30 04:48:01;;;;;;;;;11.00;5.00;;;;;12.57;55.81;100654.03;4998145;28;45433;-52
2022/05/30 04:50:26;;;;;;;;;11.00;8.00;;;;;12.51;55.80;100654.94;4997905;28;45480;-52
2022/05/30 04:52:52;;;;;;;;;5.00;5.00;;;;;12.50;56.18;100660.66;4998199;28;45951;-53
2022/05/30 04:55:18;;;;;;;;;7.50;5.25;;;;;12.52;55.73;100662.13;4998429;28;45860;-52
2022/05/30 04:57:48;;;;;;;;;6.00;6.00;;;;;12.49;56.13;100662.56;5029741;28;45426;-54
2022/05/30 05:00:16;;;;;;;;;6.80;4.60;;;;;12.36;56.10;100647.03;5029753;28;45487;-56
2022/05/30 05:02:42;;;;;;;;;8.60;5.80;;;;;12.46;56.08;100666.63;5029090;28;45267;-52
2022/05/30 05:05:08;;;;;;;;;6.50;6.50;;;;;12.40;56.01;100652.94;4997778;28;45373;-55
2022/05/30 05:07:58;;;;;;;;;5.40;5.00;;;;;12.43;55.90;100658.81;5029890;28;45362;-52
2022/05/30 05:10:28;;;;;;;;;6.00;6.00;;;;;12.49;56.13;100679.06;4997504;28;45791;-53
2022/05/30 05:12:54;;;;;;;;;4.00;4.00;;;;;12.37;55.90;100665.22;5029339;28;45517;-54
2022/05/30 05:15:19;;;;;;;;;6.00;6.00;;;;;12.36;55.91;100665.44;5029316;28;45397;-54
2022/05/30 05:17:45;;;;;;;;;9.25;6.25;;;;;12.32;56.38;100668.66;4997883;28;45390;-52
2022/05/30 05:20:11;;;;;;;;;4.25;4.00;;;;;12.31;55.85;100657.88;4997598;28;46277;-55
2022/05/30 05:22:36;;;;;;;;;6.20;4.20;;;;;12.36;56.55;100679.19;4997343;28;45399;-55
2022/05/30 05:25:02;;;;;;;;;9.25;5.00;;;;;12.23;56.50;100674.66;4986683;28;45448;-54
2022/05/30 05:27:27;;;;;;;;;7.50;4.50;;;;;11.86;56.36;100621.19;4978171;28;45299;-53
2022/05/30 05:29:54;;;;;;;;;5.00;4.00;;;;;12.16;56.27;100664.56;4960444;28;46780;-53
2022/05/30 05:32:19;;;;;;;;;7.20;7.20;;;;;12.25;56.24;100673.38;4977227;28;45407;-54
2022/05/30 05:34:46;;;;;;;;;8.50;8.00;;;;;12.26;55.90;100663.19;4976272;28;45438;-53
2022/05/30 05:37:12;;;;;;;;;9.60;9.00;;;;;12.19;56.25;100649.50;4976693;28;45305;-55
2022/05/30 05:39:37;;;;;;;;;11.50;8.00;;;;;12.30;56.24;100675.44;4976484;28;45620;-53
2022/05/30 05:42:03;;;;;;;;;11.00;9.00;;;;;12.28;56.20;100680.34;4977674;28;45413;-54
2022/05/30 05:44:29;;;;;;;;;8.00;8.00;;;;;12.29;56.22;100671.88;4976769;28;45339;-58
2022/05/30 05:46:57;;;;;;;;;4.25;4.25;;;;;12.38;55.90;100674.34;4978236;28;45540;-52
2022/05/30 05:49:23;;;;;;;;;8.00;7.20;;;;;12.49;55.61;100681.81;4944056;28;46916;-53
2022/05/30 05:51:52;;;;;;;;;4.50;4.00;;;;;12.53;55.57;100687.75;4976256;28;45356;-59
2022/05/30 05:54:17;;;;;;;;;5.00;5.00;;;;;12.57;55.43;100681.56;4977770;28;45446;-53
2022/05/30 05:56:43;;;;;;;;;8.50;8.50;;;;;12.65;55.20;100690.59;4976385;28;45605;-55
2022/05/30 05:59:08;;;;;;;;;5.25;4.00;;;;;12.61;55.07;100692.97;4977703;28;46770;-56
2022/05/30 06:01:34;;;;;;;;;10.00;7.75;;;;;12.59;55.16;100690.44;4977580;28;45289;-56
2022/05/30 06:04:05;;;;;;;;;8.00;5.75;;;;;12.51;55.22;100685.22;4976419;28;45394;-56
2022/05/30 06:06:30;;;;;;;;;8.80;6.80;;;;;12.60;54.87;100683.84;4977733;28;45403;-56
2022/05/30 06:09:01;;;;;;;;;5.50;5.50;;;;;12.58;55.17;100679.63;4977608;28;45499;-58
2022/05/30 06:11:27;;;;;;;;;9.20;7.00;;;;;12.59;55.04;100684.91;4977185;28;45184;-51
2022/05/30 06:13:53;;;;;;;;;9.60;7.20;;;;;12.56;55.34;100688.16;4976058;28;45362;-50
2022/05/30 06:16:28;;;;;;;;;7.80;5.20;;;;;12.56;54.80;100690.03;4977338;28;45437;-55
2022/05/30 06:18:55;;;;;;;;;8.60;7.60;;;;;12.70;55.09;100699.03;4975917;28;46822;-55
2022/05/30 06:21:23;;;;;;;;;8.00;8.00;;;;;12.76;54.76;100702.78;4976680;28;45278;-53
2022/05/30 06:23:48;;;;;;;;;8.80;6.40;;;;;12.70;54.77;100685.25;4975879;28;45323;-53
2022/05/30 06:26:14;;;;;;;;;6.00;5.00;;;;;12.71;54.38;100697.94;4996657;28;45270;-54
2022/05/30 06:28:40;;;;;;;;;8.75;5.75;;;;;12.78;54.59;100693.22;4995807;28;45526;-53
2022/05/30 06:31:09;;;;;;;;;4.80;4.00;;;;;12.71;54.77;100690.50;4995280;28;45259;-50
2022/05/30 06:33:35;;;;;;;;;9.20;6.20;;;;;12.57;54.80;100662.28;4995055;28;45506;-53
2022/05/30 06:36:03;;;;;;;;;7.00;5.00;;;;;12.79;54.52;100703.16;4995145;28;45414;-50
2022/05/30 06:38:28;;;;;;;;;9.00;4.80;;;;;12.79;54.53;100694.88;5027472;28;45465;-52
2022/05/30 06:40:54;;;;;;;;;9.50;8.50;;;;;12.81;54.38;100700.19;4996534;28;45310;-51
2022/05/30 06:43:19;;;;;;;;;8.50;5.50;;;;;12.48;54.57;100641.63;4996344;28;45847;-50
2022/05/30 06:45:48;;;;;;;;;7.25;7.25;;;;;12.86;54.48;100709.44;4995522;28;45561;-55
2022/05/30 06:48:14;;;;;;;;;7.80;7.20;;;;;12.58;54.37;100672.22;4996429;28;45400;-51
2022/05/30 06:50:40;;;;;;;;;7.80;7.80;;;;;12.93;53.90;100712.13;4996117;28;45457;-54
2022/05/30 06:53:06;;;;;;;;;5.00;5.00;;;;;12.99;53.76;100699.34;4996200;28;45409;-55
2022/05/30 06:55:32;;;;;;;;;8.60;5.00;;;;;12.96;53.94;100689.63;4996647;28;45624;-51
2022/05/30 06:58:12;;;;;;;;;9.50;7.50;;;;;13.02;53.68;100690.59;4996176;28;45466;-57
2022/05/30 07:00:38;;;;;;;;;11.00;6.00;;;;;13.07;53.44;100684.44;4995222;28;45623;-55
2022/05/30 07:03:03;;;;;;;;;7.00;6.75;;;;;13.17;53.63;100684.72;4996005;28;45156;-54
2022/05/30 07:05:29;;;;;;;;;6.00;6.00;;;;;13.21;53.54;100679.59;4972787;28;45699;-54
2022/05/30 07:07:56;;;;;;;;;9.00;5.00;;;;;13.01;53.08;100659.47;4994113;28;45441;-55
2022/05/30 07:10:22;;;;;;;;;10.00;7.75;;;;;13.17;53.33;100686.66;4995667;28;45347;-56
2022/05/30 07:12:47;;;;;;;;;6.20;6.00;;;;;13.11;53.49;100692.00;4995847;28;45390;-55
2022/05/30 07:15:13;;;;;;;;;9.00;8.00;;;;;12.90;53.05;100664.91;4994857;28;45402;-55
2022/05/30 07:17:38;;;;;;;;;8.25;8.25;;;;;12.91;52.82;100653.66;4994482;28;46996;-54
2022/05/30 07:20:04;;;;;;;;;6.00;6.00;;;;;13.21;52.80;100701.63;5026945;28;45556;-48
2022/05/30 07:22:30;;;;;;;;;14.00;10.80;;;;;13.26;52.92;100696.28;4995538;28;45314;-50
2022/05/30 07:24:55;;;;;;;;;7.75;6.25;;;;;13.37;52.67;100695.50;4987943;28;45279;-54
2022/05/30 07:27:21;;;;;;;;;10.75;7.25;;;;;13.51;52.19;100696.19;4975562;28;46237;-57
2022/05/30 07:29:46;;;;;;;;;7.75;6.00;;;;;13.31;51.85;100665.25;4976093;28;45255;-55
2022/05/30 07:32:12;;;;;;;;;6.50;6.50;;;;;13.59;51.80;100694.16;4976231;28;45200;-54
2022/05/30 07:34:37;;;;;;;;;4.75;4.75;;;;;13.65;51.33;100693.22;4976319;28;45369;-52
2022/05/30 07:37:03;;;;;;;;;6.00;4.00;;;;;13.78;50.56;100693.03;4975723;28;45850;-54
2022/05/30 07:39:29;;;;;;;;;6.40;6.40;;;;;13.79;50.43;100691.13;4974430;28;45300;-56
2022/05/30 07:41:54;;;;;;;;;6.00;4.75;;;;;13.77;50.99;100676.75;4975038;28;45498;-53
2022/05/30 07:44:19;;;;;;;;;9.50;7.00;;;;;14.00;50.50;100695.28;4930129;28;45541;-50
2022/05/30 07:46:45;;;;;;;;;10.00;5.25;;;;;13.99;49.93;100688.09;4968040;28;45674;-54
2022/05/30 07:49:11;;;;;;;;;7.80;5.00;;;;;13.84;50.17;100655.41;4972702;28;45425;-56
2022/05/30 07:51:37;;;;;;;;;5.00;4.80;;;;;14.16;49.77;100685.50;4976961;28;45393;-53
2022/05/30 07:54:03;;;;;;;;;9.25;6.25;;;;;14.25;49.14;100682.38;4995625;28;45583;-52
2022/05/30 07:56:28;;;;;;;;;4.75;3.75;;;;;14.10;49.16;100658.84;4997050;28;46535;-49
2022/05/30 07:58:54;;;;;;;;;7.50;6.00;;;;;14.27;49.37;100686.56;4999015;28;45409;-51
2022/05/30 08:01:19;;;;;;;;;10.00;5.50;;;;;14.14;49.09;100664.72;4979909;28;45444;-55
2022/05/30 08:03:45;;;;;;;;;7.00;7.00;;;;;14.30;49.47;100690.78;4974918;28;45580;-55
2022/05/30 08:06:15;;;;;;;;;6.00;5.75;;;;;14.38;49.51;100693.19;4980110;28;45857;-59
2022/05/30 08:08:41;;;;;;;;;6.60;4.40;;;;;14.47;48.77;100701.97;4968694;28;45386;-55
2022/05/30 08:11:06;;;;;;;;;7.00;6.60;;;;;14.46;48.30;100684.53;4996766;28;45252;-50
2022/05/30 08:13:32;;;;;;;;;7.50;4.50;;;;;14.42;47.88;100658.50;4991422;28;45622;-51
2022/05/30 08:15:58;;;;;;;;;6.00;5.75;;;;;14.44;47.60;100647.19;4978692;28;45541;-57
2022/05/30 08:18:23;;;;;;;;;3.25;3.25;;;;;14.76;47.44;100686.38;4962372;28;45466;-54
2022/05/30 08:20:49;;;;;;;;;4.25;4.25;;;;;14.69;47.23;100680.13;4994817;28;45425;-51
2022/05/30 08:23:14;;;;;;;;;6.50;4.00;;;;;14.67;47.81;100685.00;4976367;28;45656;-56
2022/05/30 08:25:40;;;;;;;;;4.50;3.50;;;;;14.30;47.66;100628.13;4976080;28;46176;-55
2022/05/30 08:28:06;;;;;;;;;5.50;5.50;;;;;14.58;48.13;100662.44;4978558;28;45323;-53
2022/05/30 08:30:31;;;;;;;;;5.25;4.00;;;;;14.59;48.35;100666.91;4961705;28;45185;-59
2022/05/30 08:32:57;;;;;;;;;4.25;4.25;;;;;14.69;47.14;100669.06;4979483;28;45900;-56
2022/05/30 08:35:23;;;;;;;;;4.00;3.00;;;;;14.47;46.60;100636.50;4977073;28;46328;-54
2022/05/30 08:37:49;;;;;;;;;5.00;3.60;;;;;14.67;47.03;100673.16;4977080;28;45552;-57
2022/05/30 08:43:05;;;;;;;;;5.20;3.40;;;;;14.85;45.61;100669.44;4978124;28;45323;-57
2022/05/30 08:45:31;;;;;;;;;3.20;3.20;;;;;14.84;45.84;100663.03;4951469;28;45633;-54
2022/05/30 08:47:58;;;;;;;;;4.50;4.50;;;;;15.02;45.89;100677.81;4961015;28;45427;-54
2022/05/30 08:50:35;;;;;;;;;5.00;5.00;;;;;14.98;45.89;100665.53;4976506;28;45468;-58
2022/05/30 08:53:22;;;;;;;;;6.40;6.00;;;;;15.13;46.60;100673.34;4978340;28;45394;-52
2022/05/30 08:55:54;;;;;;;;;6.00;5.00;;;;;15.22;44.91;100668.25;4978210;28;45634;-56
2022/05/30 08:59:00;;;;;;;;;3.00;2.00;;;;;15.27;44.08;100668.38;4964826;28;45498;-52
2022/05/30 09:01:34;;;;;;;;;2.20;2.20;;;;;15.24;43.82;100664.16;5027833;28;45365;-54
2022/05/30 09:04:16;;;;;;;;;4.20;2.60;;;;;15.29;43.38;100666.19;4982958;28;45478;-52
2022/05/30 09:06:56;;;;;;;;;4.00;2.00;;;;;15.30;43.32;100667.88;5010746;28;45828;-54
2022/05/30 09:09:24;;;;;;;;;2.60;2.60;;;;;15.34;43.42;100662.69;4996835;28;45285;-51
2022/05/30 09:12:17;;;;;;;;;2.00;2.00;;;;;15.40;42.95;100670.00;4997764;28;45320;-50
2022/05/30 09:14:56;;;;;;;;;4.00;4.00;;;;;15.38;42.39;100669.41;4976155;28;45382;-50
2022/05/30 09:17:32;;;;;;;;;3.00;1.80;;;;;15.40;42.07;100665.31;4943082;28;46592;-52
2022/05/30 09:19:57;;;;;;;;;3.80;2.00;;;;;15.30;42.29;100631.91;4951505;28;45481;-52
2022/05/30 09:22:25;;;;;;;;;4.00;3.00;;;;;15.39;43.27;100637.91;4950289;28;45403;-52
2022/05/30 09:27:35;;;;;;;;;3.80;2.60;;;;;15.72;42.46;100664.81;4978230;28;45461;-52
2022/05/30 09:30:00;;;;;;;;;3.25;3.25;;;;;15.74;42.47;100659.00;4975026;28;45489;-56
2022/05/30 09:32:55;;;;;;;;;2.00;2.00;;;;;15.79;41.47;100656.34;4958907;28;45386;-57
2022/05/30 09:35:24;;;;;;;;;3.60;2.80;;;;;15.51;41.61;100611.03;4948836;28;45407;-52
2022/05/30 09:38:07;;;;;;;;;2.40;2.40;;;;;15.79;40.99;100655.53;4928894;28;47374;-52
2022/05/30 09:40:52;;;;;;;;;0.00;0.00;;;;;15.62;42.01;100608.47;4971091;28;45483;-54
2022/05/30 09:43:25;;;;;;;;;2.00;2.00;;;;;15.89;40.37;100650.16;4994478;28;45456;-56
2022/05/30 09:45:50;;;;;;;;;1.60;1.60;;;;;15.90;41.50;100642.72;4987710;28;45335;-55
2022/05/30 09:48:20;;;;;;;;;3.25;2.25;;;;;15.98;41.39;100642.31;4995938;28;46545;-52
2022/05/30 09:50:47;;;;;;;;;1.20;1.20;;;;;16.07;41.78;100634.44;5019940;28;45253;-51
2022/05/30 09:53:13;;;;;;;;;4.80;2.80;;;;;15.82;41.34;100599.66;4977826;28;45354;-53
2022/05/30 09:55:46;;;;;;;;;1.25;1.25;;;;;15.93;41.49;100623.69;4992312;28;45484;-53
2022/05/30 09:58:12;;;;;;;;;3.60;1.80;;;;;15.79;41.41;100602.97;4977160;28;45616;-54
2022/05/30 10:00:57;;;;;;;;;4.25;3.00;;;;;16.02;41.58;100640.75;4979312;28;45800;-50
2022/05/30 10:03:30;;;;;;;;;5.20;4.40;;;;;16.20;41.49;100631.34;4984456;28;45412;-52
2022/05/30 10:06:16;;;;;;;;;8.20;7.20;;;;;16.36;40.73;100632.41;4977380;28;45371;-52
2022/05/30 10:08:42;;;;;;;;;5.00;5.00;;;;;16.43;40.26;100625.84;4966155;28;46536;-54
2022/05/30 10:11:07;;;;;;;;;2.75;2.75;;;;;16.42;40.37;100627.78;4976975;28;45382;-50
2022/05/30 10:13:38;;;;;;;;;2.00;2.00;;;;;15.75;41.14;100499.41;4959871;28;45399;-51
2022/05/30 10:16:08;;;;;;;;;2.00;2.00;;;;;16.65;39.64;100631.44;4975655;28;45585;-51
2022/05/30 10:18:55;;;;;;;;;4.00;2.00;;;;;16.76;39.85;100629.66;4975701;28;45745;-50
2022/05/30 10:21:27;;;;;;;;;2.80;2.80;;;;;16.97;39.35;100638.22;4959106;28;45382;-51
2022/05/30 10:30:54;;;;;;;;;3.40;2.80;;;;;17.11;38.83;100625.69;4975732;28;45384;-52
2022/05/30 10:33:25;;;;;;;;;2.80;2.00;;;;;17.21;37.87;100630.50;4955814;28;45614;-51
2022/05/30 10:35:59;;;;;;;;;2.40;1.80;;;;;17.18;38.37;100625.50;4975575;28;45740;-51
2022/05/30 10:38:53;;;;;;;;;2.60;2.60;;;;;17.13;38.11;100637.34;4974638;28;45463;-54
2022/05/30 10:41:41;;;;;;;;;2.00;2.00;;;;;17.01;38.01;100631.06;4970426;28;46290;-55
2022/05/30 10:44:20;;;;;;;;;2.00;2.00;;;;;16.86;38.50;100635.31;4976141;28;45359;-53
2022/05/30 10:47:03;;;;;;;;;2.60;2.60;;;;;16.82;38.89;100639.72;4959938;28;45395;-47
2022/05/30 10:49:33;;;;;;;;;3.60;3.60;;;;;16.85;39.34;100641.94;4975657;28;45412;-49
2022/05/30 10:52:24;;;;;;;;;2.40;2.40;;;;;17.01;38.95;100640.22;4974730;28;45763;-49
2022/05/30 10:55:02;;;;;;;;;2.00;2.00;;;;;17.17;38.46;100629.34;4974359;28;45437;-50
2022/05/30 10:57:34;;;;;;;;;3.00;3.00;;;;;16.99;38.62;100600.84;4959989;28;45296;-53
2022/05/30 11:00:09;;;;;;;;;4.60;3.40;;;;;17.19;38.19;100641.03;5007342;28;45388;-51
2022/05/30 11:03:12;;;;;;;;;4.60;3.20;;;;;17.20;38.43;100643.53;5027240;28;45626;-54
2022/05/30 11:06:08;;;;;;;;;2.00;2.00;;;;;17.20;38.29;100607.47;4986674;28;45258;-50
2022/05/30 11:08:47;;;;;;;;;2.60;2.60;;;;;17.59;37.50;100637.03;4996127;28;45417;-54
2022/05/30 11:11:31;;;;;;;;;3.20;2.80;;;;;17.76;37.58;100638.84;5027673;28;45435;-49
2022/05/30 11:14:12;;;;;;;;;3.00;3.00;;;;;17.92;37.24;100627.91;4990276;28;46045;-57
2022/05/30 11:16:56;;;;;;;;;4.00;2.00;;;;;18.05;36.43;100638.59;4964711;28;48567;-55
2022/05/30 11:19:24;;;;;;;;;4.40;3.00;;;;;18.00;36.29;100646.84;4991599;28;45475;-56
2022/05/30 11:21:52;;;;;;;;;3.60;3.00;;;;;18.05;35.92;100638.59;5022477;28;45414;-55
2022/05/30 11:24:18;;;;;;;;;2.60;2.60;;;;;17.87;35.62;100639.78;4963849;28;47117;-55
2022/05/30 11:27:21;;;;;;;;;4.00;2.00;;;;;17.81;35.51;100630.56;4978500;28;45538;-54
2022/05/30 11:30:14;;;;;;;;;5.00;4.00;;;;;17.82;35.95;100623.09;4978256;28;45830;-50
2022/05/30 11:33:02;;;;;;;;;2.00;2.00;;;;;17.78;35.67;100613.59;4974216;28;45491;-53
2022/05/30 11:35:43;;;;;;;;;4.00;4.00;;;;;17.89;35.92;100618.16;5023379;28;46020;-58
2022/05/30 11:38:30;;;;;;;;;2.80;2.80;;;;;17.93;35.14;100616.50;4983493;28;45826;-54
2022/05/30 11:41:23;;;;;;;;;3.40;3.40;;;;;17.94;35.43;100617.34;4974482;28;45800;-54
2022/05/30 11:43:59;;;;;;;;;3.00;3.00;;;;;17.97;35.29;100623.22;4975740;28;45502;-55
2022/05/30 11:46:47;;;;;;;;;4.20;3.80;;;;;17.91;35.47;100590.97;4973564;28;45859;-56
2022/05/30 11:49:45;;;;;;;;;3.00;2.80;;;;;18.28;35.05;100605.97;4975472;28;45823;-54
2022/05/30 11:52:16;;;;;;;;;4.20;3.40;;;;;18.48;34.15;100599.72;4959082;28;45686;-53
2022/05/30 11:55:03;;;;;;;;;3.80;3.00;;;;;18.65;34.29;100604.25;4973631;28;45393;-54